sensor_id;sensor_type;location;lat;lon;timestamp;P1;durP1;ratioP1;P2;durP2;ratioP2
34200;SDS011;20469;55.638;37.670;2023-01-28T00:02:06;14.50;;;7.82;;
34200;SDS011;20469;55.638;37.670;2023-01-28T00:04:33;12.50;;;8.35;;
34200;SDS011;20469;55.638;37.670;2023-01-28T00:07:00;13.27;;;8.75;;
34200;SDS011;20469;55.638;37.670;2023-01-28T00:09:28;13.82;;;8.57;;
34200;SDS011;20469;55.638;37.670;2023-01-28T00:11:55;13.43;;;8.25;;
34200;SDS011;20469;55.638;37.670;2023-01-28T00:14:22;13.30;;;8.68;;
34200;SDS011;20469;55.638;37.670;2023-01-28T00:16:49;14.27;;;9.15;;
34200;SDS011;20469;55.638;37.670;2023-01-28T00:19:16;12.80;;;9.00;;
34200;SDS011;20469;55.638;37.670;2023-01-28T00:21:43;14.23;;;9.18;;
34200;SDS011;20469;55.638;37.670;2023-01-28T00:24:10;12.13;;;8.48;;
34200;SDS011;20469;55.638;37.670;2023-01-28T00:26:38;12.88;;;8.07;;
34200;SDS011;20469;55.638;37.670;2023-01-28T00:29:05;12.20;;;7.70;;
34200;SDS011;20469;55.638;37.670;2023-01-28T00:31:32;10.43;;;7.20;;
34200;SDS011;20469;55.638;37.670;2023-01-28T00:34:00;9.57;;;6.95;;
34200;SDS011;20469;55.638;37.670;2023-01-28T00:36:28;7.88;;;5.85;;
34200;SDS011;20469;55.638;37.670;2023-01-28T00:38:55;5.50;;;4.63;;
34200;SDS011;20469;55.638;37.670;2023-01-28T00:41:25;6.57;;;4.63;;
34200;SDS011;20469;55.638;37.670;2023-01-28T00:43:54;5.40;;;4.40;;
34200;SDS011;20469;55.638;37.670;2023-01-28T00:46:21;5.57;;;4.32;;
34200;SDS011;20469;55.638;37.670;2023-01-28T00:48:50;7.03;;;4.95;;
34200;SDS011;20469;55.638;37.670;2023-01-28T00:51:17;5.72;;;4.78;;
34200;SDS011;20469;55.638;37.670;2023-01-28T00:53:46;6.40;;;4.85;;
34200;SDS011;20469;55.638;37.670;2023-01-28T00:56:14;8.00;;;5.03;;
34200;SDS011;20469;55.638;37.670;2023-01-28T00:58:42;6.00;;;4.65;;
34200;SDS011;20469;55.638;37.670;2023-01-28T01:01:15;6.07;;;4.47;;
34200;SDS011;20469;55.638;37.670;2023-01-28T01:03:47;6.20;;;4.38;;
34200;SDS011;20469;55.638;37.670;2023-01-28T01:06:28;6.57;;;4.13;;
34200;SDS011;20469;55.638;37.670;2023-01-28T01:08:56;5.82;;;4.38;;
34200;SDS011;20469;55.638;37.670;2023-01-28T01:11:24;5.47;;;4.20;;
34200;SDS011;20469;55.638;37.670;2023-01-28T01:13:52;6.15;;;4.75;;
34200;SDS011;20469;55.638;37.670;2023-01-28T01:16:22;7.10;;;4.28;;
34200;SDS011;20469;55.638;37.670;2023-01-28T01:18:51;5.47;;;4.10;;
34200;SDS011;20469;55.638;37.670;2023-01-28T01:21:20;5.30;;;4.43;;
34200;SDS011;20469;55.638;37.670;2023-01-28T01:23:49;5.25;;;4.70;;
34200;SDS011;20469;55.638;37.670;2023-01-28T01:26:17;5.00;;;4.20;;
34200;SDS011;20469;55.638;37.670;2023-01-28T01:28:45;4.93;;;4.15;;
34200;SDS011;20469;55.638;37.670;2023-01-28T01:31:14;5.72;;;4.55;;
34200;SDS011;20469;55.638;37.670;2023-01-28T01:33:44;5.88;;;4.88;;
34200;SDS011;20469;55.638;37.670;2023-01-28T01:36:14;5.53;;;4.50;;
34200;SDS011;20469;55.638;37.670;2023-01-28T01:38:42;6.72;;;4.40;;
34200;SDS011;20469;55.638;37.670;2023-01-28T01:41:16;5.47;;;4.78;;
34200;SDS011;20469;55.638;37.670;2023-01-28T01:43:54;5.85;;;4.75;;
34200;SDS011;20469;55.638;37.670;2023-01-28T01:46:33;5.93;;;4.93;;
34200;SDS011;20469;55.638;37.670;2023-01-28T01:51:40;9.88;;;5.47;;
34200;SDS011;20469;55.638;37.670;2023-01-28T01:54:09;6.72;;;5.53;;
34200;SDS011;20469;55.638;37.670;2023-01-28T01:56:37;7.63;;;5.15;;
34200;SDS011;20469;55.638;37.670;2023-01-28T01:59:09;7.93;;;5.80;;
34200;SDS011;20469;55.638;37.670;2023-01-28T02:01:41;6.35;;;5.22;;
34200;SDS011;20469;55.638;37.670;2023-01-28T02:04:12;5.55;;;4.95;;
34200;SDS011;20469;55.638;37.670;2023-01-28T02:06:45;6.63;;;5.00;;
34200;SDS011;20469;55.638;37.670;2023-01-28T02:09:23;6.43;;;5.07;;
34200;SDS011;20469;55.638;37.670;2023-01-28T02:11:57;5.78;;;4.80;;
34200;SDS011;20469;55.638;37.670;2023-01-28T02:14:28;6.13;;;4.65;;
34200;SDS011;20469;55.638;37.670;2023-01-28T02:17:20;6.00;;;5.03;;
34200;SDS011;20469;55.638;37.670;2023-01-28T02:19:50;5.95;;;5.05;;
34200;SDS011;20469;55.638;37.670;2023-01-28T02:22:28;6.13;;;4.95;;
34200;SDS011;20469;55.638;37.670;2023-01-28T02:30:58;6.53;;;5.60;;
34200;SDS011;20469;55.638;37.670;2023-01-28T02:34:49;6.00;;;4.90;;
34200;SDS011;20469;55.638;37.670;2023-01-28T02:38:51;7.78;;;6.07;;
34200;SDS011;20469;55.638;37.670;2023-01-28T02:41:24;9.00;;;6.60;;
34200;SDS011;20469;55.638;37.670;2023-01-28T02:43:57;8.23;;;6.60;;
34200;SDS011;20469;55.638;37.670;2023-01-28T02:49:15;9.48;;;6.95;;
34200;SDS011;20469;55.638;37.670;2023-01-28T02:51:49;8.63;;;6.63;;
34200;SDS011;20469;55.638;37.670;2023-01-28T02:54:46;8.52;;;6.47;;
34200;SDS011;20469;55.638;37.670;2023-01-28T03:00:11;7.45;;;6.45;;
34200;SDS011;20469;55.638;37.670;2023-01-28T03:03:43;8.32;;;6.03;;
34200;SDS011;20469;55.638;37.670;2023-01-28T03:05:54;7.45;;;5.93;;
34200;SDS011;20469;55.638;37.670;2023-01-28T03:08:36;7.50;;;5.93;;
34200;SDS011;20469;55.638;37.670;2023-01-28T03:11:33;7.63;;;6.30;;
34200;SDS011;20469;55.638;37.670;2023-01-28T03:14:25;9.63;;;6.70;;
34200;SDS011;20469;55.638;37.670;2023-01-28T03:17:14;10.20;;;7.13;;
34200;SDS011;20469;55.638;37.670;2023-01-28T03:20:03;9.52;;;7.07;;
34200;SDS011;20469;55.638;37.670;2023-01-28T03:22:50;8.45;;;6.38;;
34200;SDS011;20469;55.638;37.670;2023-01-28T03:25:41;8.23;;;6.30;;
34200;SDS011;20469;55.638;37.670;2023-01-28T03:28:31;7.38;;;6.25;;
34200;SDS011;20469;55.638;37.670;2023-01-28T03:31:20;8.45;;;6.65;;
34200;SDS011;20469;55.638;37.670;2023-01-28T03:34:07;9.75;;;6.75;;
34200;SDS011;20469;55.638;37.670;2023-01-28T03:36:55;8.73;;;6.78;;
34200;SDS011;20469;55.638;37.670;2023-01-28T03:39:24;9.48;;;6.85;;
34200;SDS011;20469;55.638;37.670;2023-01-28T03:42:06;8.98;;;7.50;;
34200;SDS011;20469;55.638;37.670;2023-01-28T03:44:39;10.43;;;7.80;;
34200;SDS011;20469;55.638;37.670;2023-01-28T03:47:19;9.30;;;7.35;;
34200;SDS011;20469;55.638;37.670;2023-01-28T03:49:49;8.98;;;7.30;;
34200;SDS011;20469;55.638;37.670;2023-01-28T03:52:28;10.68;;;7.28;;
34200;SDS011;20469;55.638;37.670;2023-01-28T03:54:57;10.50;;;8.02;;
34200;SDS011;20469;55.638;37.670;2023-01-28T03:57:26;10.25;;;8.38;;
34200;SDS011;20469;55.638;37.670;2023-01-28T03:59:53;11.27;;;8.70;;
34200;SDS011;20469;55.638;37.670;2023-01-28T04:02:21;12.48;;;9.23;;
34200;SDS011;20469;55.638;37.670;2023-01-28T04:04:49;12.60;;;9.68;;
34200;SDS011;20469;55.638;37.670;2023-01-28T04:07:16;12.68;;;9.48;;
34200;SDS011;20469;55.638;37.670;2023-01-28T04:09:43;12.65;;;9.85;;
34200;SDS011;20469;55.638;37.670;2023-01-28T04:12:10;12.38;;;9.73;;
34200;SDS011;20469;55.638;37.670;2023-01-28T04:14:37;14.07;;;10.57;;
34200;SDS011;20469;55.638;37.670;2023-01-28T04:17:06;12.93;;;9.95;;
34200;SDS011;20469;55.638;37.670;2023-01-28T04:19:36;14.23;;;10.45;;
34200;SDS011;20469;55.638;37.670;2023-01-28T04:22:06;13.23;;;10.15;;
34200;SDS011;20469;55.638;37.670;2023-01-28T04:24:35;12.52;;;10.32;;
34200;SDS011;20469;55.638;37.670;2023-01-28T04:27:02;12.90;;;9.82;;
34200;SDS011;20469;55.638;37.670;2023-01-28T04:29:29;12.40;;;9.93;;
34200;SDS011;20469;55.638;37.670;2023-01-28T04:31:57;14.60;;;10.73;;
34200;SDS011;20469;55.638;37.670;2023-01-28T04:34:24;13.32;;;9.77;;
34200;SDS011;20469;55.638;37.670;2023-01-28T04:36:51;15.50;;;10.02;;
34200;SDS011;20469;55.638;37.670;2023-01-28T04:39:18;13.07;;;9.32;;
34200;SDS011;20469;55.638;37.670;2023-01-28T04:41:45;12.52;;;9.30;;
34200;SDS011;20469;55.638;37.670;2023-01-28T04:44:12;14.10;;;9.57;;
34200;SDS011;20469;55.638;37.670;2023-01-28T04:46:39;14.13;;;9.55;;
34200;SDS011;20469;55.638;37.670;2023-01-28T04:49:06;12.40;;;9.63;;
34200;SDS011;20469;55.638;37.670;2023-01-28T04:51:33;12.18;;;8.38;;
34200;SDS011;20469;55.638;37.670;2023-01-28T04:54:01;10.65;;;8.32;;
34200;SDS011;20469;55.638;37.670;2023-01-28T04:56:28;10.45;;;8.48;;
34200;SDS011;20469;55.638;37.670;2023-01-28T04:58:55;11.98;;;8.68;;
34200;SDS011;20469;55.638;37.670;2023-01-28T05:01:22;11.63;;;8.00;;
34200;SDS011;20469;55.638;37.670;2023-01-28T05:03:50;11.07;;;7.88;;
34200;SDS011;20469;55.638;37.670;2023-01-28T05:06:17;11.00;;;7.72;;
34200;SDS011;20469;55.638;37.670;2023-01-28T05:08:44;10.68;;;7.93;;
34200;SDS011;20469;55.638;37.670;2023-01-28T05:11:12;11.60;;;7.60;;
34200;SDS011;20469;55.638;37.670;2023-01-28T05:13:39;10.88;;;7.55;;
34200;SDS011;20469;55.638;37.670;2023-01-28T05:16:07;11.77;;;7.97;;
34200;SDS011;20469;55.638;37.670;2023-01-28T05:18:35;9.65;;;7.05;;
34200;SDS011;20469;55.638;37.670;2023-01-28T05:21:02;10.93;;;7.40;;
34200;SDS011;20469;55.638;37.670;2023-01-28T05:23:29;9.70;;;6.82;;
34200;SDS011;20469;55.638;37.670;2023-01-28T05:25:56;8.85;;;6.70;;
34200;SDS011;20469;55.638;37.670;2023-01-28T05:28:24;9.45;;;6.15;;
34200;SDS011;20469;55.638;37.670;2023-01-28T05:30:51;8.68;;;6.13;;
34200;SDS011;20469;55.638;37.670;2023-01-28T05:33:18;8.80;;;6.20;;
34200;SDS011;20469;55.638;37.670;2023-01-28T05:35:46;9.00;;;6.78;;
34200;SDS011;20469;55.638;37.670;2023-01-28T05:38:15;9.15;;;6.20;;
34200;SDS011;20469;55.638;37.670;2023-01-28T05:40:42;8.98;;;6.43;;
34200;SDS011;20469;55.638;37.670;2023-01-28T05:43:10;9.15;;;6.32;;
34200;SDS011;20469;55.638;37.670;2023-01-28T05:45:37;9.10;;;6.15;;
34200;SDS011;20469;55.638;37.670;2023-01-28T05:48:04;8.77;;;6.32;;
34200;SDS011;20469;55.638;37.670;2023-01-28T05:50:32;8.85;;;6.47;;
34200;SDS011;20469;55.638;37.670;2023-01-28T05:52:59;8.38;;;6.38;;
34200;SDS011;20469;55.638;37.670;2023-01-28T05:55:26;9.85;;;6.65;;
34200;SDS011;20469;55.638;37.670;2023-01-28T05:57:53;9.60;;;6.30;;
34200;SDS011;20469;55.638;37.670;2023-01-28T06:00:21;9.27;;;6.75;;
34200;SDS011;20469;55.638;37.670;2023-01-28T06:02:51;9.23;;;6.45;;
34200;SDS011;20469;55.638;37.670;2023-01-28T06:05:19;10.43;;;6.65;;
34200;SDS011;20469;55.638;37.670;2023-01-28T06:07:46;9.70;;;6.97;;
34200;SDS011;20469;55.638;37.670;2023-01-28T06:10:14;10.18;;;6.47;;
34200;SDS011;20469;55.638;37.670;2023-01-28T06:12:43;8.90;;;6.70;;
34200;SDS011;20469;55.638;37.670;2023-01-28T06:15:10;8.75;;;6.03;;
34200;SDS011;20469;55.638;37.670;2023-01-28T06:17:38;9.95;;;6.88;;
34200;SDS011;20469;55.638;37.670;2023-01-28T06:20:07;10.88;;;7.63;;
34200;SDS011;20469;55.638;37.670;2023-01-28T06:22:35;11.02;;;7.22;;
34200;SDS011;20469;55.638;37.670;2023-01-28T06:25:02;11.23;;;8.02;;
34200;SDS011;20469;55.638;37.670;2023-01-28T06:27:29;12.05;;;8.38;;
34200;SDS011;20469;55.638;37.670;2023-01-28T06:29:56;16.15;;;8.75;;
34200;SDS011;20469;55.638;37.670;2023-01-28T06:32:24;10.57;;;7.85;;
34200;SDS011;20469;55.638;37.670;2023-01-28T06:34:51;15.65;;;9.55;;
34200;SDS011;20469;55.638;37.670;2023-01-28T06:37:18;13.10;;;8.38;;
34200;SDS011;20469;55.638;37.670;2023-01-28T06:39:45;16.88;;;10.20;;
34200;SDS011;20469;55.638;37.670;2023-01-28T06:42:12;15.23;;;9.13;;
34200;SDS011;20469;55.638;37.670;2023-01-28T06:44:40;14.80;;;9.30;;
34200;SDS011;20469;55.638;37.670;2023-01-28T06:47:07;19.92;;;11.27;;
34200;SDS011;20469;55.638;37.670;2023-01-28T06:49:35;14.48;;;9.60;;
34200;SDS011;20469;55.638;37.670;2023-01-28T06:52:03;21.40;;;13.02;;
34200;SDS011;20469;55.638;37.670;2023-01-28T06:54:30;18.75;;;11.85;;
34200;SDS011;20469;55.638;37.670;2023-01-28T06:56:57;19.02;;;12.65;;
34200;SDS011;20469;55.638;37.670;2023-01-28T06:59:24;18.95;;;12.90;;
34200;SDS011;20469;55.638;37.670;2023-01-28T07:01:52;21.88;;;13.27;;
34200;SDS011;20469;55.638;37.670;2023-01-28T07:04:19;17.88;;;12.70;;
34200;SDS011;20469;55.638;37.670;2023-01-28T07:06:46;21.15;;;13.50;;
34200;SDS011;20469;55.638;37.670;2023-01-28T07:09:13;24.25;;;14.25;;
34200;SDS011;20469;55.638;37.670;2023-01-28T07:11:40;20.65;;;14.02;;
34200;SDS011;20469;55.638;37.670;2023-01-28T07:14:08;21.83;;;13.65;;
34200;SDS011;20469;55.638;37.670;2023-01-28T07:16:35;21.92;;;14.18;;
34200;SDS011;20469;55.638;37.670;2023-01-28T07:19:02;24.88;;;14.50;;
34200;SDS011;20469;55.638;37.670;2023-01-28T07:21:29;22.05;;;13.57;;
34200;SDS011;20469;55.638;37.670;2023-01-28T07:23:58;20.50;;;12.40;;
34200;SDS011;20469;55.638;37.670;2023-01-28T07:26:25;18.27;;;11.88;;
34200;SDS011;20469;55.638;37.670;2023-01-28T07:28:52;22.02;;;13.68;;
34200;SDS011;20469;55.638;37.670;2023-01-28T07:31:19;21.20;;;13.38;;
34200;SDS011;20469;55.638;37.670;2023-01-28T07:33:46;19.20;;;12.40;;
34200;SDS011;20469;55.638;37.670;2023-01-28T07:36:13;18.50;;;11.63;;
34200;SDS011;20469;55.638;37.670;2023-01-28T07:38:40;18.02;;;10.02;;
34200;SDS011;20469;55.638;37.670;2023-01-28T07:41:08;16.00;;;10.73;;
34200;SDS011;20469;55.638;37.670;2023-01-28T07:43:35;20.95;;;11.55;;
34200;SDS011;20469;55.638;37.670;2023-01-28T07:46:02;20.60;;;12.30;;
34200;SDS011;20469;55.638;37.670;2023-01-28T07:48:30;19.92;;;12.15;;
34200;SDS011;20469;55.638;37.670;2023-01-28T07:50:57;18.98;;;11.43;;
34200;SDS011;20469;55.638;37.670;2023-01-28T07:53:25;15.98;;;10.52;;
34200;SDS011;20469;55.638;37.670;2023-01-28T07:55:57;17.33;;;11.13;;
34200;SDS011;20469;55.638;37.670;2023-01-28T07:58:26;14.73;;;10.20;;
34200;SDS011;20469;55.638;37.670;2023-01-28T08:00:56;17.02;;;9.95;;
34200;SDS011;20469;55.638;37.670;2023-01-28T08:03:24;15.13;;;9.75;;
34200;SDS011;20469;55.638;37.670;2023-01-28T08:05:53;19.15;;;10.70;;
34200;SDS011;20469;55.638;37.670;2023-01-28T08:08:22;12.45;;;8.82;;
34200;SDS011;20469;55.638;37.670;2023-01-28T08:10:50;15.65;;;9.85;;
34200;SDS011;20469;55.638;37.670;2023-01-28T08:13:17;13.95;;;9.20;;
34200;SDS011;20469;55.638;37.670;2023-01-28T08:15:45;19.60;;;10.73;;
34200;SDS011;20469;55.638;37.670;2023-01-28T08:18:13;17.02;;;9.52;;
34200;SDS011;20469;55.638;37.670;2023-01-28T08:20:42;13.80;;;9.10;;
34200;SDS011;20469;55.638;37.670;2023-01-28T08:23:11;15.13;;;9.75;;
34200;SDS011;20469;55.638;37.670;2023-01-28T08:25:40;16.10;;;10.25;;
34200;SDS011;20469;55.638;37.670;2023-01-28T08:28:07;15.30;;;10.02;;
34200;SDS011;20469;55.638;37.670;2023-01-28T08:30:35;14.98;;;10.77;;
34200;SDS011;20469;55.638;37.670;2023-01-28T08:33:05;17.30;;;10.90;;
34200;SDS011;20469;55.638;37.670;2023-01-28T08:35:34;22.15;;;11.07;;
34200;SDS011;20469;55.638;37.670;2023-01-28T08:38:02;19.08;;;11.05;;
34200;SDS011;20469;55.638;37.670;2023-01-28T08:40:31;17.50;;;11.48;;
34200;SDS011;20469;55.638;37.670;2023-01-28T08:42:58;16.67;;;10.85;;
34200;SDS011;20469;55.638;37.670;2023-01-28T08:45:26;18.58;;;11.40;;
34200;SDS011;20469;55.638;37.670;2023-01-28T08:47:55;19.48;;;11.80;;
34200;SDS011;20469;55.638;37.670;2023-01-28T08:50:31;18.00;;;10.65;;
34200;SDS011;20469;55.638;37.670;2023-01-28T08:53:01;17.48;;;11.32;;
34200;SDS011;20469;55.638;37.670;2023-01-28T08:55:30;17.98;;;10.82;;
34200;SDS011;20469;55.638;37.670;2023-01-28T08:58:05;15.35;;;10.60;;
34200;SDS011;20469;55.638;37.670;2023-01-28T09:00:35;18.30;;;11.02;;
34200;SDS011;20469;55.638;37.670;2023-01-28T09:03:02;18.45;;;11.05;;
34200;SDS011;20469;55.638;37.670;2023-01-28T09:05:32;15.50;;;11.13;;
34200;SDS011;20469;55.638;37.670;2023-01-28T09:08:05;19.45;;;11.65;;
34200;SDS011;20469;55.638;37.670;2023-01-28T09:10:34;21.27;;;11.70;;
34200;SDS011;20469;55.638;37.670;2023-01-28T09:13:03;23.25;;;12.23;;
34200;SDS011;20469;55.638;37.670;2023-01-28T09:15:34;20.85;;;12.85;;
34200;SDS011;20469;55.638;37.670;2023-01-28T09:18:03;18.17;;;11.85;;
34200;SDS011;20469;55.638;37.670;2023-01-28T09:20:31;17.90;;;11.63;;
34200;SDS011;20469;55.638;37.670;2023-01-28T09:22:59;19.40;;;11.80;;
34200;SDS011;20469;55.638;37.670;2023-01-28T09:25:26;19.45;;;12.30;;
34200;SDS011;20469;55.638;37.670;2023-01-28T09:27:54;18.25;;;12.75;;
34200;SDS011;20469;55.638;37.670;2023-01-28T09:30:22;18.20;;;12.20;;
34200;SDS011;20469;55.638;37.670;2023-01-28T09:32:51;20.63;;;12.68;;
34200;SDS011;20469;55.638;37.670;2023-01-28T09:35:19;20.45;;;13.27;;
34200;SDS011;20469;55.638;37.670;2023-01-28T09:37:47;19.35;;;12.98;;
34200;SDS011;20469;55.638;37.670;2023-01-28T09:40:19;22.45;;;13.85;;
34200;SDS011;20469;55.638;37.670;2023-01-28T09:45:44;20.98;;;13.65;;
34200;SDS011;20469;55.638;37.670;2023-01-28T09:48:18;22.13;;;13.25;;
34200;SDS011;20469;55.638;37.670;2023-01-28T09:50:50;21.77;;;13.55;;
34200;SDS011;20469;55.638;37.670;2023-01-28T09:55:59;24.27;;;13.48;;
34200;SDS011;20469;55.638;37.670;2023-01-28T09:58:29;20.70;;;13.80;;
34200;SDS011;20469;55.638;37.670;2023-01-28T10:01:20;24.92;;;15.18;;
34200;SDS011;20469;55.638;37.670;2023-01-28T10:10:16;21.65;;;13.60;;
34200;SDS011;20469;55.638;37.670;2023-01-28T10:15:49;22.35;;;14.73;;
34200;SDS011;20469;55.638;37.670;2023-01-28T10:18:35;26.08;;;15.48;;
34200;SDS011;20469;55.638;37.670;2023-01-28T10:21:15;24.85;;;16.48;;
34200;SDS011;20469;55.638;37.670;2023-01-28T10:23:51;24.85;;;15.15;;
34200;SDS011;20469;55.638;37.670;2023-01-28T10:26:40;24.33;;;15.25;;
34200;SDS011;20469;55.638;37.670;2023-01-28T10:29:19;26.63;;;16.23;;
34200;SDS011;20469;55.638;37.670;2023-01-28T10:32:37;27.10;;;16.25;;
34200;SDS011;20469;55.638;37.670;2023-01-28T10:34:46;27.35;;;15.65;;
34200;SDS011;20469;55.638;37.670;2023-01-28T10:37:13;24.88;;;16.58;;
34200;SDS011;20469;55.638;37.670;2023-01-28T10:39:41;23.55;;;14.98;;
34200;SDS011;20469;55.638;37.670;2023-01-28T10:42:19;24.88;;;15.32;;
34200;SDS011;20469;55.638;37.670;2023-01-28T10:45:28;22.42;;;14.88;;
34200;SDS011;20469;55.638;37.670;2023-01-28T10:48:03;24.70;;;15.38;;
34200;SDS011;20469;55.638;37.670;2023-01-28T10:50:54;23.88;;;15.73;;
34200;SDS011;20469;55.638;37.670;2023-01-28T10:53:34;24.85;;;16.13;;
34200;SDS011;20469;55.638;37.670;2023-01-28T10:56:07;26.52;;;16.02;;
34200;SDS011;20469;55.638;37.670;2023-01-28T10:58:36;24.55;;;15.85;;
34200;SDS011;20469;55.638;37.670;2023-01-28T11:01:47;27.02;;;15.77;;
34200;SDS011;20469;55.638;37.670;2023-01-28T11:04:22;24.83;;;15.93;;
34200;SDS011;20469;55.638;37.670;2023-01-28T11:09:28;25.92;;;16.23;;
34200;SDS011;20469;55.638;37.670;2023-01-28T11:11:58;25.60;;;16.17;;
34200;SDS011;20469;55.638;37.670;2023-01-28T11:14:37;26.85;;;16.58;;
34200;SDS011;20469;55.638;37.670;2023-01-28T11:17:11;26.70;;;16.15;;
34200;SDS011;20469;55.638;37.670;2023-01-28T11:19:42;26.02;;;16.33;;
34200;SDS011;20469;55.638;37.670;2023-01-28T11:22:22;26.15;;;16.20;;
34200;SDS011;20469;55.638;37.670;2023-01-28T11:25:03;24.95;;;16.15;;
34200;SDS011;20469;55.638;37.670;2023-01-28T11:27:40;29.25;;;17.10;;
34200;SDS011;20469;55.638;37.670;2023-01-28T11:30:23;27.88;;;17.35;;
34200;SDS011;20469;55.638;37.670;2023-01-28T11:35:41;25.70;;;17.52;;
34200;SDS011;20469;55.638;37.670;2023-01-28T11:38:19;33.92;;;21.13;;
34200;SDS011;20469;55.638;37.670;2023-01-28T11:40:52;34.70;;;20.55;;
34200;SDS011;20469;55.638;37.670;2023-01-28T11:43:21;32.30;;;19.00;;
34200;SDS011;20469;55.638;37.670;2023-01-28T11:45:59;32.05;;;18.98;;
34200;SDS011;20469;55.638;37.670;2023-01-28T12:02:36;31.40;;;18.50;;
34200;SDS011;20469;55.638;37.670;2023-01-28T12:08:02;31.13;;;18.65;;
34200;SDS011;20469;55.638;37.670;2023-01-28T12:10:51;33.83;;;19.35;;
34200;SDS011;20469;55.638;37.670;2023-01-28T12:16:06;33.85;;;18.52;;
34200;SDS011;20469;55.638;37.670;2023-01-28T12:21:32;31.67;;;19.33;;
34200;SDS011;20469;55.638;37.670;2023-01-28T12:27:09;33.03;;;19.42;;
34200;SDS011;20469;55.638;37.670;2023-01-28T12:41:14;31.10;;;17.65;;
34200;SDS011;20469;55.638;37.670;2023-01-28T12:43:45;31.15;;;18.70;;
34200;SDS011;20469;55.638;37.670;2023-01-28T12:57:38;31.83;;;19.63;;
34200;SDS011;20469;55.638;37.670;2023-01-28T13:05:33;33.00;;;19.05;;
34200;SDS011;20469;55.638;37.670;2023-01-28T13:08:13;31.25;;;17.67;;
34200;SDS011;20469;55.638;37.670;2023-01-28T13:13:16;31.90;;;18.13;;
34200;SDS011;20469;55.638;37.670;2023-01-28T13:16:04;31.67;;;17.67;;
34200;SDS011;20469;55.638;37.670;2023-01-28T13:23:43;30.70;;;16.85;;
34200;SDS011;20469;55.638;37.670;2023-01-28T13:28:45;30.77;;;17.08;;
34200;SDS011;20469;55.638;37.670;2023-01-28T13:31:18;23.63;;;14.48;;
34200;SDS011;20469;55.638;37.670;2023-01-28T13:39:03;26.17;;;14.52;;
34200;SDS011;20469;55.638;37.670;2023-01-28T13:41:44;20.75;;;12.93;;
34200;SDS011;20469;55.638;37.670;2023-01-28T13:46:52;24.83;;;14.02;;
34200;SDS011;20469;55.638;37.670;2023-01-28T13:49:40;23.13;;;13.88;;
34200;SDS011;20469;55.638;37.670;2023-01-28T13:52:22;22.25;;;13.18;;
34200;SDS011;20469;55.638;37.670;2023-01-28T13:54:55;25.58;;;14.35;;
34200;SDS011;20469;55.638;37.670;2023-01-28T14:20:19;24.08;;;15.05;;
34200;SDS011;20469;55.638;37.670;2023-01-28T14:23:04;26.48;;;14.60;;
34200;SDS011;20469;55.638;37.670;2023-01-28T14:25:48;27.52;;;15.65;;
34200;SDS011;20469;55.638;37.670;2023-01-28T14:31:26;23.58;;;14.13;;
34200;SDS011;20469;55.638;37.670;2023-01-28T14:34:08;27.95;;;14.88;;
34200;SDS011;20469;55.638;37.670;2023-01-28T14:36:37;24.90;;;13.80;;
34200;SDS011;20469;55.638;37.670;2023-01-28T14:39:11;28.95;;;14.75;;
34200;SDS011;20469;55.638;37.670;2023-01-28T14:41:46;26.63;;;14.55;;
34200;SDS011;20469;55.638;37.670;2023-01-28T14:44:21;27.90;;;14.98;;
34200;SDS011;20469;55.638;37.670;2023-01-28T14:46:54;26.40;;;15.02;;
34200;SDS011;20469;55.638;37.670;2023-01-28T14:55:32;27.92;;;15.32;;
34200;SDS011;20469;55.638;37.670;2023-01-28T14:58:11;26.90;;;15.20;;
34200;SDS011;20469;55.638;37.670;2023-01-28T15:00:51;23.63;;;14.88;;
34200;SDS011;20469;55.638;37.670;2023-01-28T15:03:20;25.77;;;14.60;;
34200;SDS011;20469;55.638;37.670;2023-01-28T15:06:04;27.65;;;15.55;;
34200;SDS011;20469;55.638;37.670;2023-01-28T15:08:37;26.33;;;15.40;;
34200;SDS011;20469;55.638;37.670;2023-01-28T15:11:06;33.58;;;16.15;;
34200;SDS011;20469;55.638;37.670;2023-01-28T15:13:37;28.58;;;15.43;;
34200;SDS011;20469;55.638;37.670;2023-01-28T15:16:27;24.88;;;14.20;;
34200;SDS011;20469;55.638;37.670;2023-01-28T15:18:58;24.45;;;14.00;;
34200;SDS011;20469;55.638;37.670;2023-01-28T15:21:27;24.00;;;13.35;;
34200;SDS011;20469;55.638;37.670;2023-01-28T15:23:56;26.20;;;13.90;;
34200;SDS011;20469;55.638;37.670;2023-01-28T15:26:26;23.70;;;13.68;;
34200;SDS011;20469;55.638;37.670;2023-01-28T15:28:56;23.08;;;13.05;;
34200;SDS011;20469;55.638;37.670;2023-01-28T15:31:25;24.38;;;14.80;;
34200;SDS011;20469;55.638;37.670;2023-01-28T15:34:01;27.10;;;14.60;;
34200;SDS011;20469;55.638;37.670;2023-01-28T15:36:41;27.85;;;14.15;;
34200;SDS011;20469;55.638;37.670;2023-01-28T15:39:18;23.83;;;14.07;;
34200;SDS011;20469;55.638;37.670;2023-01-28T15:41:49;26.20;;;13.20;;
34200;SDS011;20469;55.638;37.670;2023-01-28T15:44:34;24.23;;;13.93;;
34200;SDS011;20469;55.638;37.670;2023-01-28T15:49:44;27.30;;;13.05;;
34200;SDS011;20469;55.638;37.670;2023-01-28T15:52:14;24.42;;;13.48;;
34200;SDS011;20469;55.638;37.670;2023-01-28T15:54:42;27.70;;;14.45;;
34200;SDS011;20469;55.638;37.670;2023-01-28T15:57:19;26.58;;;14.00;;
34200;SDS011;20469;55.638;37.670;2023-01-28T15:59:48;25.35;;;14.38;;
34200;SDS011;20469;55.638;37.670;2023-01-28T16:04:58;22.95;;;13.85;;
34200;SDS011;20469;55.638;37.670;2023-01-28T16:07:27;24.30;;;14.73;;
34200;SDS011;20469;55.638;37.670;2023-01-28T16:09:56;24.88;;;13.68;;
34200;SDS011;20469;55.638;37.670;2023-01-28T16:12:25;23.08;;;13.02;;
34200;SDS011;20469;55.638;37.670;2023-01-28T16:14:54;21.95;;;13.10;;
34200;SDS011;20469;55.638;37.670;2023-01-28T16:17:25;25.27;;;14.30;;
34200;SDS011;20469;55.638;37.670;2023-01-28T16:19:57;23.70;;;13.45;;
34200;SDS011;20469;55.638;37.670;2023-01-28T16:22:33;21.63;;;13.20;;
34200;SDS011;20469;55.638;37.670;2023-01-28T16:25:00;22.48;;;13.50;;
34200;SDS011;20469;55.638;37.670;2023-01-28T16:27:29;25.40;;;13.98;;
34200;SDS011;20469;55.638;37.670;2023-01-28T16:29:59;23.70;;;14.18;;
34200;SDS011;20469;55.638;37.670;2023-01-28T16:34:59;24.70;;;13.73;;
34200;SDS011;20469;55.638;37.670;2023-01-28T16:37:28;29.35;;;15.88;;
34200;SDS011;20469;55.638;37.670;2023-01-28T16:39:56;23.40;;;14.43;;
34200;SDS011;20469;55.638;37.670;2023-01-28T16:42:30;30.23;;;14.75;;
34200;SDS011;20469;55.638;37.670;2023-01-28T16:44:57;27.95;;;15.45;;
34200;SDS011;20469;55.638;37.670;2023-01-28T16:47:25;32.55;;;17.83;;
34200;SDS011;20469;55.638;37.670;2023-01-28T16:49:52;29.52;;;17.55;;
34200;SDS011;20469;55.638;37.670;2023-01-28T16:52:19;33.80;;;18.55;;
34200;SDS011;20469;55.638;37.670;2023-01-28T16:54:46;36.00;;;20.42;;
34200;SDS011;20469;55.638;37.670;2023-01-28T16:57:18;44.78;;;23.17;;
34200;SDS011;20469;55.638;37.670;2023-01-28T16:59:47;42.50;;;22.63;;
34200;SDS011;20469;55.638;37.670;2023-01-28T17:02:15;41.63;;;21.92;;
34200;SDS011;20469;55.638;37.670;2023-01-28T17:04:43;45.25;;;24.23;;
34200;SDS011;20469;55.638;37.670;2023-01-28T17:07:10;40.55;;;20.58;;
34200;SDS011;20469;55.638;37.670;2023-01-28T17:09:38;34.80;;;20.00;;
34200;SDS011;20469;55.638;37.670;2023-01-28T17:12:05;36.95;;;20.30;;
34200;SDS011;20469;55.638;37.670;2023-01-28T17:14:33;36.80;;;19.63;;